Time;durP1;ratioP1;P1;durP2;ratioP2;P2;SDS_P1;SDS_P2;PMS_P1;PMS_P2;Temp;Humidity;BMP_temperature;BMP_pressure;BME280_temperature;BME280_humidity;BME280_pressure;Samples;Min_cycle;Max_cycle;Signal;HPM_P1;HPM_P2
2022/02/14 00:02:12;;;;;;;1.80;1.70;;;18.00;50.90;;;;;;5052873;28;20557;-62
2022/02/14 00:04:37;;;;;;;3.45;1.63;;;18.00;51.00;;;;;;5052765;28;20199;-62
2022/02/14 00:07:03;;;;;;;1.98;1.70;;;18.00;51.00;;;;;;5053273;28;20610;-62
2022/02/14 00:09:28;;;;;;;2.03;1.60;;;18.00;51.00;;;;;;5053846;28;20299;-63
2022/02/14 00:11:54;;;;;;;3.58;1.90;;;17.90;50.90;;;;;;5052877;28;20236;-66
2022/02/14 00:14:21;;;;;;;2.40;2.00;;;17.90;51.00;;;;;;5053807;28;20243;-66
2022/02/14 00:16:46;;;;;;;2.88;1.90;;;17.90;51.00;;;;;;5052945;28;20175;-67
2022/02/14 00:19:11;;;;;;;2.20;1.77;;;17.90;50.90;;;;;;5053162;28;20664;-65
2022/02/14 00:21:37;;;;;;;1.70;1.60;;;17.90;51.00;;;;;;5053342;28;20183;-65
2022/02/14 00:24:03;;;;;;;1.90;1.80;;;17.90;51.00;;;;;;5052448;28;20190;-64
2022/02/14 00:26:28;;;;;;;2.17;1.75;;;17.90;51.00;;;;;;5053433;28;20219;-63
2022/02/14 00:28:54;;;;;;;2.30;2.10;;;17.80;51.00;;;;;;5053033;28;20167;-62
2022/02/14 00:31:19;;;;;;;2.13;1.90;;;17.80;51.00;;;;;;5052658;28;20304;-62
2022/02/14 00:33:45;;;;;;;2.03;1.70;;;17.80;51.00;;;;;;5053183;28;20266;-63
2022/02/14 00:36:10;;;;;;;2.05;1.55;;;17.80;51.10;;;;;;5052747;28;20171;-63
2022/02/14 00:38:36;;;;;;;2.13;1.92;;;17.80;51.10;;;;;;5052542;28;20550;-64
2022/02/14 00:41:01;;;;;;;2.05;1.80;;;17.80;51.60;;;;;;5052723;28;20513;-64
2022/02/14 00:43:27;;;;;;;2.75;2.00;;;17.80;51.10;;;;;;5052979;28;20182;-63
2022/02/14 00:45:52;;;;;;;2.00;1.83;;;17.80;51.00;;;;;;5052070;28;20210;-64
2022/02/14 00:48:18;;;;;;;1.83;1.70;;;17.80;51.10;;;;;;5052954;28;20175;-63
2022/02/14 00:50:43;;;;;;;1.60;1.50;;;17.70;51.00;;;;;;5052865;28;20684;-65
2022/02/14 00:53:09;;;;;;;2.67;2.17;;;17.70;51.00;;;;;;5051970;28;20168;-64
2022/02/14 00:55:36;;;;;;;1.63;1.52;;;17.70;51.00;;;;;;5052647;28;20222;-65
2022/02/14 00:58:02;;;;;;;1.85;1.75;;;17.70;51.00;;;;;;5052517;28;20183;-63
2022/02/14 01:00:27;;;;;;;1.50;1.40;;;17.70;51.00;;;;;;5052040;28;20195;-62
2022/02/14 01:02:53;;;;;;;2.78;2.15;;;17.60;50.90;;;;;;5052286;28;20179;-62
2022/02/14 01:05:18;;;;;;;1.95;1.85;;;17.70;51.00;;;;;;5052510;28;20280;-62
2022/02/14 01:07:44;;;;;;;1.92;1.83;;;17.60;50.40;;;;;;5052033;28;20183;-64
2022/02/14 01:10:10;;;;;;;2.17;1.80;;;17.60;51.00;;;;;;5052315;28;20182;-64
2022/02/14 01:12:37;;;;;;;1.80;1.70;;;17.60;51.00;;;;;;5052143;28;20682;-66
2022/02/14 01:15:05;;;;;;;1.50;1.40;;;17.60;51.00;;;;;;5050802;28;20621;-66
2022/02/14 01:17:31;;;;;;;1.98;1.67;;;17.60;50.90;;;;;;5052704;28;20526;-65
2022/02/14 01:19:57;;;;;;;2.10;1.90;;;17.60;51.00;;;;;;5051961;28;20187;-65
2022/02/14 01:22:22;;;;;;;1.52;1.42;;;17.60;51.00;;;;;;5051830;28;20199;-64
2022/02/14 01:24:48;;;;;;;1.83;1.67;;;17.60;51.00;;;;;;5052205;28;20286;-64
2022/02/14 01:27:13;;;;;;;2.10;1.90;;;17.60;51.00;;;;;;5051285;28;20685;-62
2022/02/14 01:29:39;;;;;;;1.70;1.60;;;17.60;51.00;;;;;;5052063;28;20528;-62
2022/02/14 01:32:05;;;;;;;1.63;1.50;;;17.60;51.10;;;;;;5051791;28;20174;-62
2022/02/14 01:34:30;;;;;;;1.92;1.77;;;17.60;51.00;;;;;;5051253;28;20225;-62
2022/02/14 01:36:56;;;;;;;1.73;1.63;;;17.60;51.00;;;;;;5051924;28;20252;-63
2022/02/14 01:39:21;;;;;;;2.83;1.70;;;17.50;51.00;;;;;;5052185;28;20167;-64
2022/02/14 01:41:47;;;;;;;2.55;1.85;;;17.50;50.90;;;;;;5051275;28;20171;-64
2022/02/14 01:44:31;;;;;;;2.58;1.98;;;17.50;51.00;;;;;;5051614;28;20179;-63
2022/02/14 01:46:56;;;;;;;2.20;2.00;;;17.50;51.00;;;;;;5036319;28;20194;-63
2022/02/14 01:49:22;;;;;;;1.77;1.38;;;17.50;51.10;;;;;;5051083;28;20568;-63
2022/02/14 01:51:47;;;;;;;2.00;1.77;;;17.50;51.10;;;;;;5052050;28;20258;-64
2022/02/14 01:54:13;;;;;;;1.95;1.58;;;17.50;51.00;;;;;;5051417;28;20219;-64
2022/02/14 01:56:38;;;;;;;2.95;2.03;;;17.50;51.10;;;;;;5051124;28;20222;-65
2022/02/14 01:59:04;;;;;;;2.03;1.73;;;17.50;51.00;;;;;;5033251;28;20212;-62
2022/02/14 02:01:29;;;;;;;3.08;2.20;;;17.50;51.00;;;;;;5051540;28;20175;-62
2022/02/14 02:03:55;;;;;;;2.15;1.90;;;17.50;51.10;;;;;;5050596;28;20174;-62
2022/02/14 02:06:20;;;;;;;1.80;1.70;;;17.50;51.00;;;;;;5051475;28;20565;-62
2022/02/14 02:08:46;;;;;;;2.38;1.80;;;17.50;51.00;;;;;;5051727;28;20214;-63
2022/02/14 02:13:55;;;;;;;2.72;1.63;;;17.40;51.00;;;;;;5051299;28;20186;-66
2022/02/14 02:16:21;;;;;;;4.03;1.65;;;17.40;51.00;;;;;;5050828;28;20179;-66
2022/02/14 02:18:49;;;;;;;2.22;1.63;;;17.40;51.00;;;;;;5051840;28;20551;-66
2022/02/14 02:21:15;;;;;;;2.47;1.55;;;17.40;51.00;;;;;;5051498;28;20256;-65
2022/02/14 02:23:40;;;;;;;1.90;1.80;;;17.40;51.00;;;;;;5051034;28;20251;-64
2022/02/14 02:26:07;;;;;;;2.13;1.80;;;17.40;51.00;;;;;;5054649;28;20255;-63
2022/02/14 02:28:33;;;;;;;1.52;1.40;;;17.40;51.00;;;;;;5055600;28;20172;-62
2022/02/14 02:31:02;;;;;;;1.80;1.70;;;17.40;51.00;;;;;;5054895;28;20258;-62
2022/02/14 02:33:31;;;;;;;2.25;1.80;;;17.40;51.00;;;;;;5055652;28;20591;-63
2022/02/14 02:35:58;;;;;;;2.22;1.80;;;17.30;50.90;;;;;;5055484;28;20187;-64
2022/02/14 02:38:24;;;;;;;1.98;1.60;;;17.30;50.90;;;;;;5055075;28;20198;-64
2022/02/14 02:40:50;;;;;;;2.47;1.70;;;17.30;50.90;;;;;;5055775;28;20649;-64
2022/02/14 02:43:17;;;;;;;1.55;1.45;;;17.30;51.00;;;;;;5055339;28;20540;-63
2022/02/14 02:45:45;;;;;;;1.63;1.50;;;17.30;51.00;;;;;;5054807;28;20423;-63
2022/02/14 02:48:11;;;;;;;1.90;1.70;;;17.30;51.00;;;;;;5055188;28;20507;-63
2022/02/14 02:51:01;;;;;;;1.92;1.73;;;17.30;51.00;;;;;;5055511;28;20695;-64
2022/02/14 02:53:22;;;;;;;2.10;1.90;;;17.30;51.00;;;;;;5054649;28;20218;-64
2022/02/14 02:55:47;;;;;;;2.58;1.60;;;17.30;51.00;;;;;;5055202;28;20261;-64
2022/02/14 02:58:13;;;;;;;1.95;1.63;;;17.30;51.00;;;;;;5055021;28;20179;-63
2022/02/14 03:00:38;;;;;;;2.35;1.52;;;17.30;51.10;;;;;;5055204;28;20175;-62
2022/02/14 03:03:04;;;;;;;1.88;1.70;;;17.30;51.00;;;;;;5054958;28;20171;-62
2022/02/14 03:05:29;;;;;;;2.25;1.80;;;17.30;51.00;;;;;;5055021;28;20317;-62
2022/02/14 03:07:55;;;;;;;1.95;1.73;;;17.20;51.00;;;;;;5054188;28;20240;-63
2022/02/14 03:10:20;;;;;;;2.28;1.67;;;17.20;50.90;;;;;;5055042;28;20172;-64
2022/02/14 03:12:46;;;;;;;2.30;2.10;;;17.30;51.00;;;;;;5054422;28;20228;-66
2022/02/14 03:15:11;;;;;;;2.35;1.80;;;17.20;50.90;;;;;;5054656;28;20186;-66
2022/02/14 03:17:37;;;;;;;1.63;1.52;;;17.20;50.90;;;;;;5054774;28;20654;-66
2022/02/14 03:20:03;;;;;;;2.10;1.80;;;17.20;51.00;;;;;;5053938;28;20183;-65
2022/02/14 03:22:29;;;;;;;1.90;1.77;;;17.20;50.90;;;;;;5055301;28;20612;-64
2022/02/14 03:24:55;;;;;;;2.10;1.90;;;17.20;51.00;;;;;;5055217;28;20673;-64
2022/02/14 03:27:20;;;;;;;2.78;1.50;;;17.20;51.00;;;;;;5055135;28;20229;-63
2022/02/14 03:29:46;;;;;;;1.40;1.30;;;17.20;51.10;;;;;;5055641;28;20171;-62
2022/02/14 03:32:11;;;;;;;2.35;1.50;;;17.20;51.00;;;;;;5055269;28;20172;-62
2022/02/14 03:34:37;;;;;;;1.58;1.48;;;17.10;51.60;;;;;;5054681;28;20513;-63
2022/02/14 03:37:03;;;;;;;1.83;1.70;;;17.20;51.10;;;;;;5053733;28;20657;-62
2022/02/14 03:39:28;;;;;;;3.28;1.77;;;17.10;51.00;;;;;;5055204;28;20172;-63
2022/02/14 03:41:54;;;;;;;1.90;1.50;;;17.20;51.00;;;;;;5054198;28;20171;-64
2022/02/14 03:44:19;;;;;;;1.98;1.60;;;17.10;51.00;;;;;;5055137;28;20573;-64
2022/02/14 03:46:45;;;;;;;1.85;1.58;;;17.10;51.00;;;;;;5055320;28;20175;-64
2022/02/14 03:49:10;;;;;;;2.50;1.70;;;17.10;51.00;;;;;;5054168;28;20175;-63
2022/02/14 03:51:36;;;;;;;2.45;2.03;;;17.10;51.00;;;;;;5054942;28;20189;-64
2022/02/14 03:54:01;;;;;;;2.95;1.95;;;17.10;51.10;;;;;;5054561;28;20638;-64
2022/02/14 03:56:27;;;;;;;1.70;1.55;;;17.10;51.10;;;;;;5054366;28;20528;-64
2022/02/14 03:58:52;;;;;;;1.83;1.60;;;17.10;51.10;;;;;;5054984;28;20179;-63
2022/02/14 04:01:18;;;;;;;1.77;1.67;;;17.10;51.10;;;;;;5054995;28;20167;-63
2022/02/14 04:03:43;;;;;;;2.65;2.05;;;17.10;51.10;;;;;;5054099;28;20171;-62
2022/02/14 04:06:09;;;;;;;2.55;1.38;;;17.10;51.10;;;;;;5054479;28;20569;-63
2022/02/14 04:08:35;;;;;;;2.80;1.70;;;17.00;51.10;;;;;;5054679;28;20261;-63
2022/02/14 04:11:00;;;;;;;1.50;1.40;;;17.10;51.10;;;;;;5053925;28;20214;-64
2022/02/14 04:13:26;;;;;;;1.80;1.70;;;17.10;51.10;;;;;;5054889;28;20187;-65
2022/02/14 04:15:51;;;;;;;2.50;1.90;;;17.00;51.10;;;;;;5053752;28;20183;-67
2022/02/14 04:18:17;;;;;;;1.90;1.80;;;17.00;51.10;;;;;;5053966;28;20167;-66
2022/02/14 04:20:42;;;;;;;1.73;1.40;;;17.00;51.10;;;;;;5054646;28;20549;-66
2022/02/14 04:23:08;;;;;;;1.67;1.58;;;17.10;51.20;;;;;;5053613;28;20194;-64
2022/02/14 04:25:36;;;;;;;1.70;1.60;;;17.00;51.10;;;;;;5054436;28;20214;-64
2022/02/14 04:28:02;;;;;;;4.05;1.77;;;17.00;51.10;;;;;;5054280;28;20175;-62
2022/02/14 04:30:29;;;;;;;2.35;1.80;;;17.00;51.10;;;;;;5053692;28;20186;-62
2022/02/14 04:32:56;;;;;;;1.60;1.50;;;17.00;51.10;;;;;;5054068;28;20183;-63
2022/02/14 04:35:22;;;;;;;2.05;1.65;;;17.00;51.10;;;;;;5054256;28;20343;-63
2022/02/14 04:37:48;;;;;;;2.63;1.60;;;17.00;51.10;;;;;;5053482;28;20275;-64
2022/02/14 04:40:14;;;;;;;2.20;1.60;;;17.00;51.10;;;;;;5053861;28;20602;-63
2022/02/14 04:42:41;;;;;;;1.80;1.45;;;17.00;51.10;;;;;;5054090;28;20182;-64
2022/02/14 04:45:07;;;;;;;1.70;1.60;;;17.00;51.10;;;;;;5052925;28;20218;-63
2022/02/14 04:47:33;;;;;;;2.20;2.00;;;17.00;51.10;;;;;;5053752;28;20258;-63
2022/02/14 04:49:58;;;;;;;1.85;1.50;;;16.90;51.10;;;;;;5053512;28;20657;-64
2022/02/14 04:52:23;;;;;;;1.50;1.40;;;17.00;51.10;;;;;;5053055;28;20206;-64
2022/02/14 04:54:54;;;;;;;1.58;1.48;;;16.90;51.10;;;;;;5053679;28;20234;-66
2022/02/14 04:57:20;;;;;;;1.70;1.60;;;16.90;51.10;;;;;;5053996;28;20182;-64
2022/02/14 04:59:45;;;;;;;2.63;1.60;;;16.90;51.10;;;;;;5053007;28;20182;-63
2022/02/14 05:02:11;;;;;;;1.75;1.30;;;16.90;51.10;;;;;;5053622;28;20561;-63
2022/02/14 05:04:36;;;;;;;2.40;1.60;;;16.90;51.10;;;;;;5053545;28;20195;-62
2022/02/14 05:07:02;;;;;;;1.60;1.42;;;16.90;51.20;;;;;;5052636;28;20274;-63
2022/02/14 05:09:28;;;;;;;3.13;1.48;;;16.90;51.10;;;;;;5053862;28;20167;-64
2022/02/14 05:11:53;;;;;;;1.45;1.35;;;16.90;51.20;;;;;;5053278;28;20184;-66
2022/02/14 05:14:19;;;;;;;2.67;1.50;;;16.90;51.20;;;;;;5052845;28;20167;-66
2022/02/14 05:16:44;;;;;;;1.60;1.50;;;16.90;51.20;;;;;;5053485;28;20190;-67
2022/02/14 05:19:10;;;;;;;1.80;1.55;;;16.90;51.10;;;;;;5052860;28;20167;-65
2022/02/14 05:21:35;;;;;;;1.67;1.50;;;16.80;51.10;;;;;;5053017;28;20230;-65
2022/02/14 05:24:01;;;;;;;1.83;1.73;;;16.90;51.10;;;;;;5053183;28;20171;-64
2022/02/14 05:26:27;;;;;;;1.92;1.77;;;16.80;51.10;;;;;;5052708;28;20293;-63
2022/02/14 05:28:55;;;;;;;2.05;1.65;;;16.80;51.20;;;;;;5053360;28;20236;-63
2022/02/14 05:31:23;;;;;;;2.53;1.52;;;16.80;51.10;;;;;;5053292;28;20198;-60
2022/02/14 05:33:49;;;;;;;3.08;1.85;;;16.80;51.10;;;;;;5052402;28;20171;-63
2022/02/14 05:36:16;;;;;;;1.67;1.58;;;16.80;51.10;;;;;;5052794;28;20266;-63
2022/02/14 05:38:42;;;;;;;2.50;1.85;;;16.80;51.10;;;;;;5053328;28;20175;-66
2022/02/14 05:41:07;;;;;;;2.85;1.80;;;16.80;51.10;;;;;;5052064;28;20240;-63
2022/02/14 05:43:33;;;;;;;1.77;1.65;;;16.80;51.20;;;;;;5053062;28;20492;-63
2022/02/14 05:45:58;;;;;;;2.25;1.83;;;16.80;51.20;;;;;;5052599;28;20242;-63
2022/02/14 05:48:26;;;;;;;2.38;1.75;;;16.80;51.20;;;;;;5052266;28;20167;-63
2022/02/14 05:50:52;;;;;;;2.20;1.63;;;16.80;51.20;;;;;;5053102;28;20183;-64
2022/02/14 05:53:18;;;;;;;1.75;1.50;;;16.80;51.20;;;;;;5053069;28;20619;-64
2022/02/14 05:55:43;;;;;;;1.98;1.52;;;16.80;51.20;;;;;;5052094;28;20254;-64
2022/02/14 05:58:11;;;;;;;1.98;1.50;;;16.80;51.20;;;;;;5052620;28;20177;-63
2022/02/14 06:00:37;;;;;;;1.75;1.50;;;16.70;51.10;;;;;;5051969;28;20179;-62
2022/02/14 06:03:02;;;;;;;1.80;1.58;;;16.80;51.20;;;;;;5051648;28;20523;-62
2022/02/14 06:05:28;;;;;;;1.80;1.48;;;16.70;51.20;;;;;;5052847;28;20653;-61
2022/02/14 06:07:53;;;;;;;3.42;1.48;;;16.70;51.20;;;;;;5052539;28;20175;-63
2022/02/14 06:10:19;;;;;;;2.00;1.40;;;16.70;51.20;;;;;;5052163;28;20262;-64
2022/02/14 06:12:44;;;;;;;1.80;1.40;;;16.70;51.20;;;;;;5052609;28;20175;-65
2022/02/14 06:15:10;;;;;;;1.60;1.50;;;16.70;51.20;;;;;;5052754;28;20575;-65
2022/02/14 06:17:35;;;;;;;1.42;1.30;;;16.70;51.20;;;;;;5051779;28;20629;-65
2022/02/14 06:20:01;;;;;;;1.98;1.50;;;16.70;51.20;;;;;;5052246;28;20220;-65
2022/02/14 06:22:27;;;;;;;2.22;1.40;;;16.70;51.20;;;;;;5052547;28;20171;-64
2022/02/14 06:24:52;;;;;;;1.55;1.45;;;16.70;51.20;;;;;;5051889;28;20650;-64
2022/02/14 06:27:18;;;;;;;1.73;1.63;;;16.70;51.20;;;;;;5052568;28;20225;-62
2022/02/14 06:29:43;;;;;;;1.73;1.52;;;16.70;51.20;;;;;;5051826;28;20175;-61
2022/02/14 06:32:09;;;;;;;1.33;1.20;;;16.70;51.20;;;;;;5052071;28;20672;-62
2022/02/14 06:34:34;;;;;;;1.38;1.27;;;16.70;51.20;;;;;;5052290;28;20210;-63
2022/02/14 06:37:00;;;;;;;2.42;1.77;;;16.70;51.80;;;;;;5051712;28;20634;-63
2022/02/14 06:39:25;;;;;;;1.60;1.50;;;16.70;51.20;;;;;;5052576;28;20214;-63
2022/02/14 06:41:51;;;;;;;2.35;1.75;;;16.70;51.30;;;;;;5052473;28;20186;-63
2022/02/14 06:44:18;;;;;;;1.70;1.58;;;16.70;51.20;;;;;;5051402;28;20195;-63
2022/02/14 06:46:43;;;;;;;2.17;1.48;;;16.70;51.20;;;;;;5052261;28;20642;-62
2022/02/14 06:49:09;;;;;;;2.35;1.77;;;16.70;51.30;;;;;;5051900;28;20626;-63
2022/02/14 06:51:39;;;;;;;2.20;1.65;;;16.60;51.20;;;;;;5051512;28;20182;-63
2022/02/14 06:54:05;;;;;;;1.50;1.40;;;16.60;51.10;;;;;;5051814;28;20183;-63
2022/02/14 06:56:30;;;;;;;1.80;1.63;;;16.60;51.20;;;;;;5052153;28;20537;-63
2022/02/14 06:58:56;;;;;;;1.60;1.50;;;16.60;51.20;;;;;;5051221;28;20167;-62
2022/02/14 07:01:21;;;;;;;2.05;1.63;;;16.60;51.20;;;;;;5052233;28;20167;-61
2022/02/14 07:03:47;;;;;;;1.70;1.60;;;16.60;51.30;;;;;;5052690;28;20178;-61
2022/02/14 07:06:14;;;;;;;1.63;1.40;;;16.60;51.30;;;;;;5050992;28;20476;-66
2022/02/14 07:08:39;;;;;;;3.20;1.45;;;16.60;51.40;;;;;;5052053;28;20412;-66
2022/02/14 07:11:05;;;;;;;2.60;1.33;;;16.60;51.40;;;;;;5053082;28;20194;-67
2022/02/14 07:13:30;;;;;;;4.65;2.13;;;16.60;51.60;;;;;;5054943;28;20164;-67
2022/02/14 07:15:57;;;;;;;4.57;2.08;;;16.60;51.90;;;;;;5055404;28;20171;-66
2022/02/14 07:18:22;;;;;;;4.47;1.60;;;16.60;51.90;;;;;;5055372;28;20213;-67
2022/02/14 07:20:48;;;;;;;7.57;2.05;;;16.60;51.70;;;;;;5055000;28;20171;-67
2022/02/14 07:23:14;;;;;;;2.22;1.42;;;16.70;51.90;;;;;;5055185;28;20171;-67
2022/02/14 07:25:39;;;;;;;3.50;1.60;;;16.70;51.80;;;;;;5055205;28;20657;-68
2022/02/14 07:28:05;;;;;;;3.78;1.55;;;16.70;51.90;;;;;;5054380;28;20171;-70
2022/02/14 07:30:30;;;;;;;1.73;1.27;;;16.80;51.80;;;;;;5055309;28;20190;-69
2022/02/14 07:32:56;;;;;;;4.28;1.58;;;16.80;51.70;;;;;;5054157;28;20310;-70
2022/02/14 07:35:21;;;;;;;2.97;1.58;;;16.90;52.00;;;;;;5055459;28;20217;-72
2022/02/14 07:37:47;;;;;;;2.03;1.20;;;16.90;51.90;;;;;;5055520;28;20175;-70
2022/02/14 07:40:13;;;;;;;4.05;1.50;;;17.00;52.20;;;;;;5054256;28;20190;-69
2022/02/14 07:42:38;;;;;;;2.47;1.40;;;17.00;52.10;;;;;;5055002;28;20171;-70
2022/02/14 07:45:05;;;;;;;1.98;1.10;;;17.10;52.00;;;;;;5054833;28;20696;-70
2022/02/14 07:47:30;;;;;;;5.32;1.80;;;17.20;52.00;;;;;;5053670;28;20190;-69
2022/02/14 07:49:56;;;;;;;2.90;1.95;;;17.30;51.90;;;;;;5054619;28;20179;-68
2022/02/14 07:52:22;;;;;;;2.28;1.30;;;17.40;51.80;;;;;;5054752;28;20590;-68
2022/02/14 07:54:48;;;;;;;2.70;1.38;;;17.60;51.50;;;;;;5054019;28;20276;-68
2022/02/14 07:57:13;;;;;;;2.78;1.60;;;17.60;51.30;;;;;;5054551;28;20646;-70
2022/02/14 07:59:39;;;;;;;5.28;1.30;;;17.80;51.20;;;;;;5054693;28;20224;-72
2022/02/14 08:02:04;;;;;;;3.67;1.40;;;17.80;51.00;;;;;;5053580;28;20175;-72
2022/02/14 08:04:30;;;;;;;3.50;1.42;;;17.90;50.90;;;;;;5054800;28;20183;-72
2022/02/14 08:06:55;;;;;;;1.50;1.10;;;18.00;50.90;;;;;;5054448;28;20202;-74
2022/02/14 08:09:21;;;;;;;1.52;1.17;;;18.10;50.70;;;;;;5054332;28;20170;-74
2022/02/14 08:11:46;;;;;;;2.95;1.30;;;18.10;50.70;;;;;;5054828;28;20583;-73
2022/02/14 08:14:13;;;;;;;1.63;1.52;;;18.10;50.80;;;;;;5053267;28;20175;-67
2022/02/14 08:16:39;;;;;;;1.20;1.08;;;18.20;50.80;;;;;;5053633;28;20171;-65
2022/02/14 08:19:04;;;;;;;3.58;1.50;;;18.20;50.80;;;;;;5059278;28;20178;-67
2022/02/14 08:21:31;;;;;;;2.67;1.52;;;18.20;50.80;;;;;;5054385;28;20171;-66
2022/02/14 08:23:57;;;;;;;4.05;1.80;;;18.30;50.80;;;;;;5052667;28;20235;-66
2022/02/14 08:26:23;;;;;;;4.13;1.58;;;18.30;50.70;;;;;;5062498;28;20543;-68
2022/02/14 08:28:48;;;;;;;1.40;1.13;;;18.30;50.70;;;;;;5055341;28;20187;-67
2022/02/14 08:31:14;;;;;;;2.95;1.48;;;18.30;50.70;;;;;;5053226;28;20216;-68
2022/02/14 08:33:39;;;;;;;1.60;1.10;;;18.30;50.60;;;;;;5066976;28;20170;-68
2022/02/14 08:36:08;;;;;;;4.13;1.23;;;18.30;50.60;;;;;;5073970;28;20170;-68
2022/02/14 08:38:39;;;;;;;3.05;1.13;;;18.40;50.60;;;;;;5074258;28;20179;-68
2022/02/14 08:41:04;;;;;;;1.73;1.15;;;18.30;50.60;;;;;;5070516;28;20176;-67
2022/02/14 08:43:32;;;;;;;2.40;1.30;;;18.30;50.60;;;;;;5053117;28;20175;-68
2022/02/14 08:45:58;;;;;;;3.88;1.35;;;18.20;50.70;;;;;;5053557;28;20733;-68
2022/02/14 08:48:24;;;;;;;2.03;1.38;;;18.10;50.70;;;;;;5054125;28;20207;-68
2022/02/14 08:50:49;;;;;;;2.08;1.23;;;18.20;50.80;;;;;;5053352;28;20265;-67
2022/02/14 08:53:17;;;;;;;1.88;1.10;;;18.10;50.90;;;;;;5053494;28;20199;-67
2022/02/14 08:55:43;;;;;;;2.90;1.48;;;18.10;51.00;;;;;;5053481;28;20765;-65
2022/02/14 08:58:08;;;;;;;2.60;1.15;;;18.10;51.00;;;;;;5055655;28;20175;-67
2022/02/14 09:00:34;;;;;;;2.05;1.10;;;18.10;51.00;;;;;;5073239;28;20182;-68
2022/02/14 09:03:00;;;;;;;1.15;1.00;;;18.10;51.00;;;;;;5073464;28;20641;-68
2022/02/14 09:05:26;;;;;;;2.50;1.30;;;18.10;51.00;;;;;;5072952;28;20363;-68
2022/02/14 09:07:52;;;;;;;1.98;0.90;;;18.00;51.10;;;;;;5073587;28;20183;-67
2022/02/14 09:10:17;;;;;;;1.23;0.88;;;18.10;51.20;;;;;;5073231;28;20177;-68
2022/02/14 09:12:46;;;;;;;5.35;1.13;;;18.00;51.20;;;;;;5067825;28;20263;-66
2022/02/14 09:15:11;;;;;;;3.40;1.20;;;18.00;51.40;;;;;;5071799;28;20170;-66
2022/02/14 09:17:37;;;;;;;2.58;1.08;;;18.00;51.50;;;;;;5055271;28;20540;-65
2022/02/14 09:20:03;;;;;;;2.05;1.05;;;18.00;51.50;;;;;;5072187;28;20170;-66
2022/02/14 09:22:29;;;;;;;2.42;0.90;;;18.00;51.50;;;;;;5073036;28;20178;-66
2022/02/14 09:24:55;;;;;;;4.05;1.30;;;18.00;51.50;;;;;;5073050;28;20221;-66
2022/02/14 09:27:20;;;;;;;2.72;0.93;;;18.00;51.40;;;;;;5072306;28;20182;-67
2022/02/14 09:29:46;;;;;;;2.75;1.30;;;17.90;51.40;;;;;;5072908;28;20699;-67
2022/02/14 09:32:11;;;;;;;3.95;1.10;;;17.90;51.50;;;;;;5070093;28;20178;-68
2022/02/14 09:34:37;;;;;;;1.60;1.08;;;17.90;51.50;;;;;;5051304;28;20601;-68
2022/02/14 09:37:03;;;;;;;1.23;1.00;;;17.80;51.50;;;;;;5052752;28;20179;-67
2022/02/14 09:39:30;;;;;;;2.78;1.00;;;17.80;51.60;;;;;;5052004;28;20191;-68
2022/02/14 09:42:03;;;;;;;1.88;1.08;;;17.80;51.60;;;;;;5052279;28;20174;-67
2022/02/14 09:44:31;;;;;;;1.25;0.90;;;17.80;51.70;;;;;;5053025;28;20527;-68
2022/02/14 09:46:57;;;;;;;1.73;1.00;;;17.80;51.70;;;;;;5052063;28;20225;-68
2022/02/14 09:49:23;;;;;;;1.55;0.90;;;17.90;51.70;;;;;;5053105;28;20210;-67
2022/02/14 09:51:49;;;;;;;1.48;0.90;;;17.90;51.70;;;;;;5052801;28;20175;-66
2022/02/14 09:54:14;;;;;;;1.35;0.90;;;17.80;51.60;;;;;;5051452;28;20233;-67
2022/02/14 09:56:40;;;;;;;1.83;0.93;;;17.80;51.70;;;;;;5052581;28;20171;-68
2022/02/14 09:59:06;;;;;;;1.05;0.80;;;17.80;51.70;;;;;;5052627;28;20202;-69
2022/02/14 10:01:32;;;;;;;1.08;0.85;;;17.80;51.60;;;;;;5051925;28;20174;-67
2022/02/14 10:03:58;;;;;;;1.00;0.80;;;17.80;51.70;;;;;;5052163;28;20197;-68
2022/02/14 10:06:28;;;;;;;0.95;0.90;;;17.80;51.80;;;;;;5052317;28;20674;-67
2022/02/14 10:09:14;;;;;;;0.70;0.70;;;17.80;51.80;;;;;;5051433;28;20194;-67
2022/02/14 10:12:10;;;;;;;1.52;1.15;;;17.80;51.80;;;;;;5052856;28;20171;-66
2022/02/14 10:14:36;;;;;;;1.30;0.88;;;17.80;51.80;;;;;;5052014;28;20179;-66
2022/02/14 10:17:14;;;;;;;1.58;0.80;;;17.90;51.90;;;;;;5052134;28;20177;-65
2022/02/14 10:19:45;;;;;;;4.20;1.25;;;17.80;51.80;;;;;;5052568;28;20171;-66
2022/02/14 10:22:11;;;;;;;1.52;0.90;;;17.90;51.80;;;;;;5051477;28;20178;-66
2022/02/14 10:24:43;;;;;;;1.13;0.93;;;17.90;51.60;;;;;;5052276;28;20171;-66
2022/02/14 10:27:09;;;;;;;0.88;0.70;;;17.90;51.70;;;;;;5051928;28;20186;-66
2022/02/14 10:29:34;;;;;;;0.98;0.80;;;17.90;51.70;;;;;;5051577;28;20195;-66
2022/02/14 10:32:01;;;;;;;0.95;0.85;;;17.90;51.70;;;;;;5053078;28;20268;-67
2022/02/14 10:34:38;;;;;;;1.30;1.00;;;17.90;51.70;;;;;;5072478;28;20579;-67
2022/02/14 10:37:04;;;;;;;2.72;0.90;;;17.90;52.40;;;;;;5071345;28;20253;-66
2022/02/14 10:39:31;;;;;;;1.70;1.00;;;17.90;51.90;;;;;;5072387;28;20170;-67
2022/02/14 10:41:58;;;;;;;1.20;0.90;;;17.90;51.80;;;;;;5071926;28;20751;-66
2022/02/14 10:47:19;;;;;;;0.70;0.70;;;18.00;51.70;;;;;;5075366;28;20599;-66
2022/02/14 10:49:45;;;;;;;0.93;0.80;;;18.00;51.70;;;;;;5075631;28;20688;-65
2022/02/14 10:52:12;;;;;;;0.70;0.70;;;18.10;51.80;;;;;;5075734;28;20309;-65
2022/02/14 10:54:42;;;;;;;1.05;0.90;;;18.10;51.70;;;;;;5077940;28;20704;-65
2022/02/14 10:57:22;;;;;;;0.82;0.70;;;18.10;51.70;;;;;;5075116;28;20629;-66
2022/02/14 10:59:58;;;;;;;0.68;0.68;;;18.10;51.80;;;;;;5076065;28;20313;-66
2022/02/14 11:02:24;;;;;;;2.15;0.70;;;18.00;51.80;;;;;;5075965;28;20193;-67
2022/02/14 11:04:50;;;;;;;0.80;0.80;;;18.00;51.90;;;;;;5075223;28;20174;-67
2022/02/14 11:07:16;;;;;;;0.70;0.70;;;18.10;51.90;;;;;;5057719;28;20185;-66
2022/02/14 11:09:44;;;;;;;0.70;0.70;;;18.00;51.90;;;;;;5075170;28;20200;-66
2022/02/14 11:12:11;;;;;;;1.15;0.95;;;17.90;52.00;;;;;;5074828;28;20197;-66
2022/02/14 11:14:36;;;;;;;0.73;0.73;;;17.90;52.00;;;;;;5041537;28;20537;-66
2022/02/14 11:17:02;;;;;;;1.48;0.98;;;17.90;52.10;;;;;;5057481;28;20574;-65
2022/02/14 11:19:27;;;;;;;0.70;0.70;;;17.90;52.00;;;;;;5040316;28;20174;-65
2022/02/14 11:21:53;;;;;;;0.98;0.82;;;17.80;52.10;;;;;;5074986;28;20179;-65
2022/02/14 11:24:24;;;;;;;1.00;0.90;;;17.70;52.10;;;;;;5057668;28;20175;-65
2022/02/14 11:26:59;;;;;;;1.52;0.98;;;17.80;52.30;;;;;;5040825;28;20244;-65
2022/02/14 11:29:51;;;;;;;1.42;1.20;;;17.70;52.30;;;;;;5057484;28;20648;-67
2022/02/14 11:32:28;;;;;;;1.10;1.00;;;17.70;52.40;;;;;;5053342;28;20270;-67
2022/02/14 11:35:06;;;;;;;1.08;0.90;;;17.70;52.20;;;;;;5055043;28;20179;-66
2022/02/14 11:37:56;;;;;;;1.58;1.02;;;17.70;52.20;;;;;;5055854;28;20312;-66
2022/02/14 11:40:32;;;;;;;1.25;0.90;;;17.60;52.30;;;;;;5054495;28;20179;-67
2022/02/14 11:43:23;;;;;;;0.80;0.80;;;17.60;52.30;;;;;;5054997;28;20173;-66
2022/02/14 11:46:20;;;;;;;1.75;0.95;;;17.70;52.30;;;;;;5054988;28;20665;-66
2022/02/14 11:48:55;;;;;;;2.08;0.90;;;17.70;52.30;;;;;;5055317;28;20168;-66
2022/02/14 11:51:24;;;;;;;1.10;0.85;;;17.80;52.10;;;;;;5037441;28;20190;-65
2022/02/14 11:53:50;;;;;;;0.88;0.75;;;17.80;52.10;;;;;;5054487;28;20261;-65
2022/02/14 11:56:21;;;;;;;1.70;0.93;;;17.80;52.00;;;;;;5054491;28;20303;-66
2022/02/14 11:59:07;;;;;;;0.90;0.80;;;17.80;52.10;;;;;;5053911;28;20225;-65
2022/02/14 12:01:56;;;;;;;0.70;0.70;;;17.80;51.90;;;;;;5053835;28;20692;-66
2022/02/14 12:04:33;;;;;;;0.93;0.90;;;17.80;52.10;;;;;;5054958;28;20225;-67
2022/02/14 12:07:46;;;;;;;0.80;0.80;;;17.70;52.10;;;;;;5054371;28;20237;-67
2022/02/14 12:10:22;;;;;;;0.93;0.93;;;17.70;52.20;;;;;;5051398;28;20527;-67
2022/02/14 12:13:03;;;;;;;0.98;0.90;;;17.80;52.10;;;;;;5054759;28;20213;-64
2022/02/14 12:21:13;;;;;;;1.63;1.13;;;17.90;52.20;;;;;;5073950;28;20598;-69
2022/02/14 12:23:40;;;;;;;2.50;0.90;;;17.90;52.30;;;;;;5074036;28;20228;-68
2022/02/14 12:26:07;;;;;;;1.83;0.82;;;17.90;52.10;;;;;;5073926;28;20318;-69
2022/02/14 12:28:33;;;;;;;2.50;0.80;;;17.90;52.20;;;;;;5073615;28;20174;-70
2022/02/14 12:30:58;;;;;;;2.17;1.00;;;17.80;52.30;;;;;;5074273;28;20189;-71
2022/02/14 12:33:24;;;;;;;3.08;0.80;;;17.80;52.30;;;;;;5061386;28;20266;-71
2022/02/14 12:35:50;;;;;;;3.83;1.05;;;17.80;52.40;;;;;;5053596;28;20175;-70
2022/02/14 12:38:16;;;;;;;3.55;0.93;;;17.80;52.60;;;;;;5053951;28;20262;-70
2022/02/14 12:40:52;;;;;;;1.73;0.93;;;17.70;52.60;;;;;;5054059;28;20278;-68
2022/02/14 12:43:26;;;;;;;2.28;1.00;;;17.70;52.60;;;;;;5053609;28;20190;-70
2022/02/14 12:45:56;;;;;;;3.17;1.10;;;17.60;52.60;;;;;;5054296;28;20215;-70
2022/02/14 12:48:33;;;;;;;2.05;1.20;;;17.60;52.80;;;;;;5053979;28;20654;-71
2022/02/14 12:51:04;;;;;;;1.95;1.00;;;17.60;52.90;;;;;;5053084;28;20187;-68
2022/02/14 12:53:29;;;;;;;1.20;1.00;;;17.60;52.90;;;;;;5053716;28;20168;-69
2022/02/14 12:56:07;;;;;;;2.22;1.20;;;17.60;53.00;;;;;;5055649;28;20250;-69
2022/02/14 12:58:45;;;;;;;0.98;0.80;;;17.50;53.00;;;;;;5035501;28;20183;-71
2022/02/14 13:01:10;;;;;;;2.25;1.10;;;17.50;53.10;;;;;;5053638;28;20175;-69